createdAt,value
2022-11-22T00:00:25.360Z,68.68
2022-11-22T00:02:52.345Z,67.60
2022-11-22T00:05:19.026Z,67.22
2022-11-22T00:07:45.727Z,76.03
2022-11-22T00:10:14.282Z,71.63
2022-11-22T00:12:41.421Z,70.78
2022-11-22T00:15:08.822Z,69.90
2022-11-22T00:17:35.599Z,65.00
2022-11-22T00:20:02.420Z,73.65
2022-11-22T00:22:30.536Z,64.03
2022-11-22T00:24:57.175Z,70.93
2022-11-22T00:27:24.231Z,74.10
2022-11-22T00:29:51.049Z,73.82
2022-11-22T00:32:17.729Z,67.68
2022-11-22T00:34:44.415Z,69.25
2022-11-22T00:37:11.315Z,68.30
2022-11-22T00:39:37.969Z,72.22
2022-11-22T00:42:04.722Z,69.82
2022-11-22T00:44:31.465Z,63.40
2022-11-22T00:46:59.258Z,69.07
2022-11-22T00:49:25.973Z,69.32
2022-11-22T00:51:52.631Z,65.65
2022-11-22T00:54:19.280Z,70.50
2022-11-22T00:56:46.011Z,67.55
2022-11-22T00:59:12.729Z,73.35
2022-11-22T01:01:39.477Z,78.32
2022-11-22T01:04:06.290Z,74.93
2022-11-22T01:06:33.176Z,81.15
2022-11-22T01:08:59.968Z,78.35
2022-11-22T01:11:26.953Z,75.35
2022-11-22T01:13:53.665Z,75.85
2022-11-22T01:16:20.393Z,76.72
2022-11-22T01:18:47.049Z,72.43
2022-11-22T01:21:14.102Z,75.22
2022-11-22T01:23:40.769Z,75.03
2022-11-22T01:26:09.107Z,75.35
2022-11-22T01:28:36.605Z,76.70
2022-11-22T01:31:04.887Z,82.55
2022-11-22T01:33:31.677Z,78.43
2022-11-22T01:35:58.545Z,86.38
2022-11-22T01:38:25.734Z,82.80
2022-11-22T01:40:53.664Z,83.43
2022-11-22T01:43:26.368Z,77.97
2022-11-22T01:45:55.588Z,84.93
2022-11-22T01:48:42.654Z,79.18
2022-11-22T01:51:34.565Z,81.85
2022-11-22T01:54:04.810Z,80.50
2022-11-22T01:56:32.918Z,81.63
2022-11-22T01:59:07.003Z,83.68
2022-11-22T02:01:34.679Z,84.38
2022-11-22T02:04:04.000Z,76.05
2022-11-22T02:06:40.964Z,73.60
2022-11-22T02:09:12.385Z,77.13
2022-11-22T02:11:46.071Z,80.95
2022-11-22T02:14:14.478Z,80.50
2022-11-22T02:16:43.451Z,82.68
2022-11-22T02:19:19.726Z,78.03
2022-11-22T02:21:50.321Z,84.70
2022-11-22T02:24:24.001Z,86.60
2022-11-22T02:26:50.633Z,75.88
2022-11-22T02:29:18.652Z,83.95
2022-11-22T02:31:46.815Z,83.13
2022-11-22T02:34:14.508Z,78.85
2022-11-22T02:36:48.931Z,82.78
2022-11-22T02:39:20.414Z,84.05
2022-11-22T02:41:48.772Z,80.47
2022-11-22T02:44:16.582Z,86.68
2022-11-22T02:46:48.383Z,81.00
2022-11-22T02:49:18.160Z,84.28
2022-11-22T02:51:44.832Z,80.93
2022-11-22T02:54:11.488Z,75.57
2022-11-22T02:56:38.167Z,85.72
2022-11-22T02:59:04.943Z,78.97
2022-11-22T03:01:31.803Z,80.72
2022-11-22T03:03:58.493Z,79.85
2022-11-22T03:06:25.258Z,88.93
2022-11-22T03:08:56.174Z,81.55
2022-11-22T03:11:23.567Z,84.30
2022-11-22T03:13:50.606Z,82.47
2022-11-22T03:16:17.247Z,89.30
2022-11-22T03:18:43.907Z,80.47
2022-11-22T03:21:11.006Z,77.40
2022-11-22T03:23:37.635Z,81.40
2022-11-22T03:26:11.811Z,78.95
2022-11-22T03:28:38.866Z,79.75
2022-11-22T03:31:06.750Z,72.05
2022-11-22T03:33:34.837Z,73.85
2022-11-22T03:36:01.850Z,79.70
2022-11-22T03:38:28.531Z,76.68
2022-11-22T03:40:55.230Z,77.93
2022-11-22T03:43:23.374Z,75.43
2022-11-22T03:45:50.137Z,73.97
2022-11-22T03:48:17.046Z,77.55
2022-11-22T03:50:44.301Z,76.38
2022-11-22T03:53:11.391Z,76.50
2022-11-22T03:55:39.507Z,79.15
2022-11-22T03:58:06.790Z,78.30
2022-11-22T04:00:34.114Z,84.72
2022-11-22T04:03:02.186Z,78.22
2022-11-22T04:05:28.842Z,77.13
2022-11-22T04:07:58.339Z,82.18
2022-11-22T04:10:26.100Z,79.68
2022-11-22T04:12:57.367Z,82.22
2022-11-22T04:15:24.182Z,75.30
2022-11-22T04:17:51.011Z,77.25
2022-11-22T04:20:43.747Z,80.65
2022-11-22T04:23:21.272Z,77.03
2022-11-22T04:25:50.227Z,76.50
2022-11-22T04:28:21.244Z,75.50
2022-11-22T04:31:07.542Z,77.00
2022-11-22T04:33:35.291Z,76.88
2022-11-22T04:36:02.126Z,73.93
2022-11-22T04:38:28.939Z,77.63
2022-11-22T04:40:55.698Z,75.07
2022-11-22T04:43:43.327Z,76.90
2022-11-22T04:46:15.734Z,72.88
2022-11-22T04:48:42.729Z,74.55
2022-11-22T04:51:33.063Z,78.95
2022-11-22T04:53:59.707Z,77.15
2022-11-22T04:56:26.396Z,87.18
2022-11-22T04:58:54.051Z,82.70
2022-11-22T05:01:20.754Z,89.35
2022-11-22T05:03:47.447Z,82.72
2022-11-22T05:06:14.767Z,75.00
2022-11-22T05:08:41.429Z,77.63
2022-11-22T05:11:08.071Z,80.15
2022-11-22T05:13:38.115Z,71.25
2022-11-22T05:16:06.772Z,78.68
2022-11-22T05:18:33.939Z,79.55
2022-11-22T05:21:08.975Z,79.20
2022-11-22T05:23:54.511Z,79.35
2022-11-22T05:26:26.850Z,79.65
2022-11-22T05:28:54.122Z,83.32
2022-11-22T05:31:27.911Z,83.90
2022-11-22T05:33:56.863Z,82.03
2022-11-22T05:36:24.417Z,81.43
2022-11-22T05:38:51.590Z,87.05
2022-11-22T05:41:18.556Z,87.47
2022-11-22T05:43:45.453Z,104.30
2022-11-22T05:46:24.681Z,97.78
2022-11-22T05:48:53.800Z,87.53
2022-11-22T05:51:23.084Z,80.32
2022-11-22T05:53:49.900Z,86.00
2022-11-22T05:56:22.899Z,91.00
2022-11-22T05:58:50.775Z,111.90
2022-11-22T06:01:19.855Z,113.90
2022-11-22T06:03:47.004Z,100.82
2022-11-22T06:06:14.444Z,74.22
2022-11-22T06:08:43.282Z,77.30
2022-11-22T06:11:15.289Z,80.88
2022-11-22T06:13:44.131Z,77.80
2022-11-22T06:16:11.746Z,88.38
2022-11-22T06:18:38.499Z,91.10
2022-11-22T06:21:12.049Z,91.40
2022-11-22T06:23:38.849Z,95.93
2022-11-22T06:26:08.657Z,101.75
2022-11-22T06:28:36.815Z,97.00
2022-11-22T06:31:04.282Z,89.00
2022-11-22T06:33:31.250Z,99.30
2022-11-22T06:36:08.324Z,96.78
2022-11-22T06:38:35.226Z,111.07
2022-11-22T06:41:04.572Z,109.07
2022-11-22T06:43:32.247Z,99.97
2022-11-22T06:46:00.125Z,106.60
2022-11-22T06:48:29.951Z,109.15
2022-11-22T06:51:05.048Z,118.03
2022-11-22T06:53:46.634Z,110.80
2022-11-22T06:56:32.046Z,108.07
2022-11-22T06:59:02.837Z,115.25
2022-11-22T07:01:31.016Z,107.90
2022-11-22T07:03:59.229Z,111.28
2022-11-22T07:06:28.251Z,108.40
2022-11-22T07:08:55.344Z,107.45
2022-11-22T07:11:24.957Z,112.97
2022-11-22T07:13:53.023Z,113.80
2022-11-22T07:16:21.198Z,104.38
2022-11-22T07:18:49.022Z,105.72
2022-11-22T07:21:23.968Z,105.63
2022-11-22T07:23:53.842Z,101.90
2022-11-22T07:26:22.578Z,95.25
2022-11-22T07:28:49.265Z,94.30
2022-11-22T07:31:18.288Z,116.03
2022-11-22T07:33:45.464Z,112.20
2022-11-22T07:36:17.371Z,112.65
2022-11-22T07:38:44.482Z,102.53
2022-11-22T07:41:11.379Z,90.63
2022-11-22T07:43:40.087Z,100.65
2022-11-22T07:46:20.475Z,95.20
2022-11-22T07:48:49.464Z,87.93
2022-11-22T07:51:16.427Z,80.68
2022-11-22T07:53:43.117Z,79.97
2022-11-22T07:56:09.809Z,76.80
2022-11-22T07:58:37.610Z,78.93
2022-11-22T08:01:12.693Z,80.10
2022-11-22T08:03:39.825Z,79.55
2022-11-22T08:06:08.879Z,74.40
2022-11-22T08:08:36.287Z,83.57
2022-11-22T08:11:03.563Z,76.20
2022-11-22T08:13:31.231Z,83.50
2022-11-22T08:16:06.333Z,84.03
2022-11-22T08:18:34.566Z,83.03
2022-11-22T08:21:12.450Z,88.07
2022-11-22T08:23:39.827Z,79.03
2022-11-22T08:26:08.656Z,82.70
2022-11-22T08:28:35.925Z,83.05
2022-11-22T08:31:14.962Z,87.82
2022-11-22T08:33:41.899Z,79.63
2022-11-22T08:36:09.197Z,72.80
2022-11-22T08:38:36.370Z,70.38
2022-11-22T08:41:04.232Z,66.18
2022-11-22T08:43:31.884Z,64.57
2022-11-22T08:45:59.756Z,58.13
2022-11-22T08:48:27.331Z,55.30
2022-11-22T08:50:56.702Z,58.15
2022-11-22T08:53:24.338Z,50.47
2022-11-22T08:55:51.711Z,53.78
2022-11-22T08:58:18.613Z,53.60
2022-11-22T09:00:45.513Z,50.20
2022-11-22T09:03:12.247Z,59.97
2022-11-22T09:08:26.040Z,72.97
2022-11-22T09:10:53.236Z,77.38
2022-11-22T09:13:19.878Z,82.50
2022-11-22T09:15:46.909Z,71.35
2022-11-22T09:18:13.721Z,62.85
2022-11-22T09:20:40.456Z,59.17
2022-11-22T09:23:07.170Z,49.33
2022-11-22T09:25:34.082Z,51.13
2022-11-22T09:28:03.025Z,53.20
2022-11-22T09:30:31.066Z,51.85
2022-11-22T09:32:58.140Z,51.70
2022-11-22T09:35:24.973Z,47.53
2022-11-22T09:37:51.660Z,47.05
2022-11-22T09:40:18.462Z,45.30
2022-11-22T09:43:03.801Z,48.65
2022-11-22T09:45:44.575Z,49.92
2022-11-22T09:50:51.578Z,50.67
2022-11-22T09:53:42.868Z,48.27
2022-11-22T09:56:16.481Z,43.28
2022-11-22T09:58:51.975Z,43.17
2022-11-22T10:01:22.675Z,38.47
2022-11-22T10:04:12.951Z,41.88
2022-11-22T10:06:46.213Z,40.85
2022-11-22T10:09:28.217Z,43.78
2022-11-22T10:12:19.807Z,44.50
2022-11-22T10:15:02.961Z,44.47
2022-11-22T10:17:51.422Z,45.13
2022-11-22T10:20:23.674Z,44.80
2022-11-22T10:22:50.674Z,46.75
2022-11-22T10:25:22.925Z,41.50
2022-11-22T10:28:26.147Z,57.83
2022-11-22T10:31:17.745Z,49.90
2022-11-22T10:34:11.837Z,45.85
2022-11-22T10:37:18.073Z,44.63
2022-11-22T10:40:02.799Z,39.45
2022-11-22T10:43:09.521Z,37.97
2022-11-22T10:45:38.303Z,38.50
2022-11-22T10:48:47.468Z,42.28
2022-11-22T10:51:22.849Z,40.95
2022-11-22T10:54:03.333Z,39.58
2022-11-22T10:56:50.170Z,35.67
2022-11-22T10:59:32.000Z,36.08
2022-11-22T11:02:17.620Z,39.13
2022-11-22T11:04:45.975Z,39.35
2022-11-22T11:07:18.776Z,36.75
2022-11-22T11:13:15.743Z,37.72
2022-11-22T11:15:55.528Z,33.50
2022-11-22T11:18:43.591Z,41.55
2022-11-22T11:21:14.982Z,34.30
2022-11-22T11:23:42.651Z,35.95
2022-11-22T11:26:15.640Z,37.08
2022-11-22T11:28:42.442Z,37.80
2022-11-22T11:31:11.385Z,34.38
2022-11-22T11:33:40.509Z,34.33
2022-11-22T11:36:11.096Z,36.53
2022-11-22T11:41:34.516Z,36.88
2022-11-22T11:44:05.761Z,36.05
2022-11-22T11:46:41.658Z,34.83
2022-11-22T11:49:28.451Z,36.05
2022-11-22T11:52:06.653Z,37.80
2022-11-22T11:54:39.214Z,33.88
2022-11-22T11:57:11.348Z,33.53
2022-11-22T11:59:38.970Z,33.67
2022-11-22T12:02:11.899Z,35.75
2022-11-22T12:04:48.160Z,33.97
2022-11-22T12:07:20.623Z,33.75
2022-11-22T12:09:49.832Z,41.03
2022-11-22T12:12:42.362Z,35.88
2022-11-22T12:15:29.505Z,30.85
2022-11-22T12:18:17.238Z,36.00
2022-11-22T12:21:03.704Z,35.25
2022-11-22T12:24:08.198Z,34.55
2022-11-22T12:26:43.592Z,36.83
2022-11-22T12:29:14.778Z,36.40
2022-11-22T12:31:54.198Z,33.42
2022-11-22T12:34:30.095Z,37.95
2022-11-22T12:37:15.612Z,38.20
2022-11-22T12:39:50.198Z,35.50
2022-11-22T12:42:28.375Z,34.83
2022-11-22T12:45:11.226Z,40.40
2022-11-22T12:47:43.715Z,34.25
2022-11-22T12:50:21.394Z,36.28
2022-11-22T12:52:53.087Z,37.53
2022-11-22T12:55:26.367Z,35.60
2022-11-22T12:57:58.885Z,41.53
2022-11-22T13:00:29.602Z,39.92
2022-11-22T13:05:31.458Z,37.92
2022-11-22T13:08:09.925Z,38.40
2022-11-22T13:11:08.880Z,36.55
2022-11-22T13:13:46.304Z,41.30
2022-11-22T13:16:14.312Z,38.53
2022-11-22T13:19:02.763Z,44.75
2022-11-22T13:22:01.525Z,40.88
2022-11-22T13:24:40.367Z,38.75
2022-11-22T13:27:18.661Z,34.70
2022-11-22T13:29:46.226Z,41.85
2022-11-22T13:32:12.881Z,41.05
2022-11-22T13:35:01.159Z,37.47
2022-11-22T13:37:30.106Z,39.92
2022-11-22T13:39:56.858Z,39.60
2022-11-22T13:42:29.697Z,44.75
2022-11-22T13:44:56.268Z,40.63
2022-11-22T13:47:22.984Z,39.97
2022-11-22T13:49:51.609Z,39.65
2022-11-22T13:52:18.254Z,38.80
2022-11-22T13:54:47.886Z,41.85
2022-11-22T13:57:26.772Z,42.97
2022-11-22T14:00:14.635Z,47.70
2022-11-22T14:03:20.585Z,48.60
2022-11-22T14:05:53.667Z,57.83
2022-11-22T14:08:41.539Z,54.88
2022-11-22T14:11:20.311Z,64.18
2022-11-22T14:14:20.883Z,61.72
2022-11-22T14:16:55.310Z,62.97
2022-11-22T14:19:58.217Z,58.08
2022-11-22T14:22:32.132Z,55.45
2022-11-22T14:25:35.972Z,57.95
2022-11-22T14:28:28.877Z,60.20
2022-11-22T14:30:57.622Z,56.63
2022-11-22T14:33:28.790Z,60.17
2022-11-22T14:36:07.506Z,57.95
2022-11-22T14:38:44.393Z,63.83
2022-11-22T14:41:31.049Z,54.90
2022-11-22T14:44:07.223Z,59.10
2022-11-22T14:47:02.726Z,56.72
2022-11-22T14:49:55.912Z,61.65
2022-11-22T14:52:28.720Z,62.35
2022-11-22T14:55:08.808Z,62.40
2022-11-22T14:57:37.217Z,54.88
2022-11-22T15:00:07.402Z,68.65
2022-11-22T15:02:49.525Z,74.97
2022-11-22T15:09:11.396Z,76.05
2022-11-22T15:09:18.823Z,80.55
2022-11-22T15:11:45.389Z,89.75
2022-11-22T15:14:14.961Z,76.28
2022-11-22T15:59:44.583Z,82.80
2022-11-22T16:02:22.572Z,85.78
2022-11-22T16:06:04.484Z,83.75
2022-11-22T16:07:52.203Z,87.07
2022-11-22T16:10:27.606Z,74.13
2022-11-22T16:12:54.450Z,73.90
2022-11-22T16:15:37.272Z,82.03
2022-11-22T16:18:25.892Z,68.90
2022-11-22T16:21:02.863Z,70.57
2022-11-22T16:23:34.888Z,66.82
2022-11-22T16:26:29.543Z,66.18
2022-11-22T16:29:26.198Z,69.38
2022-11-22T16:32:03.951Z,70.00
2022-11-22T16:34:30.644Z,73.45
2022-11-22T16:36:57.986Z,68.47
2022-11-22T16:39:24.752Z,72.28
2022-11-22T16:41:51.451Z,71.65
2022-11-22T16:44:19.954Z,67.80
2022-11-22T16:46:47.667Z,67.88
2022-11-22T16:49:22.225Z,67.40
2022-11-22T16:51:50.950Z,70.72
2022-11-22T16:54:19.482Z,64.10
2022-11-22T16:56:46.988Z,64.28
2022-11-22T16:59:13.714Z,70.70
2022-11-22T17:01:42.756Z,70.20
2022-11-22T17:04:21.987Z,73.50
2022-11-22T17:06:48.849Z,69.47
2022-11-22T17:09:15.625Z,62.92
2022-11-22T17:11:44.282Z,64.88
2022-11-22T17:14:15.316Z,70.03
2022-11-22T17:16:42.887Z,75.82
2022-11-22T17:19:19.107Z,66.60
2022-11-22T17:21:57.052Z,74.00
2022-11-22T17:24:24.053Z,78.53
2022-11-22T17:26:50.924Z,78.63
2022-11-22T17:29:48.909Z,73.07
2022-11-22T17:32:04.743Z,70.55
2022-11-22T17:34:31.674Z,70.18
2022-11-22T17:36:58.575Z,72.30
2022-11-22T17:39:25.923Z,73.22
2022-11-22T17:41:53.186Z,68.97
2022-11-22T17:44:21.517Z,67.13
2022-11-22T17:46:48.408Z,62.30
2022-11-22T17:49:16.186Z,76.45
2022-11-22T17:51:43.717Z,64.75
2022-11-22T17:54:10.437Z,61.50
2022-11-22T17:56:37.655Z,69.43
2022-11-22T17:59:05.432Z,66.30
2022-11-22T18:01:32.364Z,69.57
2022-11-22T18:03:59.240Z,68.85
2022-11-22T18:06:29.617Z,64.45
2022-11-22T18:08:56.275Z,67.47
2022-11-22T18:11:23.999Z,67.15
2022-11-22T18:13:51.185Z,68.70
2022-11-22T18:16:19.335Z,62.20
2022-11-22T18:19:02.042Z,67.30
2022-11-22T18:21:30.785Z,69.20
2022-11-22T18:24:00.959Z,67.57
2022-11-22T18:26:43.973Z,66.88
2022-11-22T18:32:00.574Z,70.40
2022-11-22T18:34:28.559Z,63.42
2022-11-22T18:37:00.796Z,70.80
2022-11-22T18:39:31.510Z,69.35
2022-11-22T18:41:58.506Z,74.50
2022-11-22T18:44:25.793Z,66.18
2022-11-22T18:46:54.182Z,69.07
2022-11-22T18:49:22.698Z,73.80
2022-11-22T18:51:49.358Z,71.18
2022-11-22T18:54:16.711Z,74.93
2022-11-22T18:56:43.375Z,75.97
2022-11-22T18:59:12.688Z,78.20
2022-11-22T19:01:43.098Z,74.82
2022-11-22T19:04:14.286Z,75.18
2022-11-22T19:06:44.321Z,78.10
2022-11-22T19:09:11.351Z,83.18
2022-11-22T19:11:38.044Z,77.70
2022-11-22T19:14:04.818Z,81.03
2022-11-22T19:16:31.723Z,86.03
2022-11-22T19:18:59.963Z,78.28
2022-11-22T19:21:28.265Z,99.43
2022-11-22T19:23:56.327Z,97.00
2022-11-22T19:26:25.460Z,82.80
2022-11-22T19:28:57.240Z,80.68
2022-11-22T19:31:27.869Z,86.15
2022-11-22T19:33:55.534Z,75.32
2022-11-22T19:36:29.156Z,84.15
2022-11-22T19:38:59.202Z,85.40
2022-11-22T19:41:26.782Z,74.72
2022-11-22T19:43:55.275Z,75.85
2022-11-22T19:46:22.029Z,71.82
2022-11-22T19:48:52.739Z,75.28
2022-11-22T19:53:46.273Z,76.75
2022-11-22T19:56:15.821Z,78.65
2022-11-22T19:58:44.607Z,79.78
2022-11-22T20:01:15.537Z,68.47
2022-11-22T20:03:43.455Z,70.80
2022-11-22T20:06:12.615Z,72.70
2022-11-22T20:08:40.220Z,82.20
2022-11-22T20:11:12.481Z,81.03
2022-11-22T20:13:44.729Z,75.70
2022-11-22T20:16:23.515Z,74.30
2022-11-22T20:19:05.325Z,75.00
2022-11-22T20:21:34.603Z,74.93
2022-11-22T20:24:03.912Z,91.45
2022-11-22T20:26:31.677Z,86.38
2022-11-22T20:29:00.497Z,79.72
2022-11-22T20:31:30.523Z,85.53
2022-11-22T20:33:59.058Z,85.93
2022-11-22T20:36:28.288Z,83.63
2022-11-22T20:38:55.627Z,80.28
2022-11-22T20:41:25.325Z,76.43
2022-11-22T20:43:52.682Z,75.00
2022-11-22T20:46:25.236Z,88.10
2022-11-22T20:48:55.800Z,77.35
2022-11-22T20:51:24.855Z,77.72
2022-11-22T20:53:51.945Z,79.10
2022-11-22T20:56:19.109Z,82.78
2022-11-22T20:58:46.163Z,82.68
2022-11-22T21:01:17.884Z,89.50
2022-11-22T21:03:45.081Z,80.53
2022-11-22T21:06:12.953Z,85.50
2022-11-22T21:08:39.792Z,86.53
2022-11-22T21:11:10.154Z,75.30
2022-11-22T21:13:36.974Z,77.28
2022-11-22T21:16:21.522Z,74.25
2022-11-22T21:18:56.748Z,73.93
2022-11-22T21:21:25.442Z,77.53
2022-11-22T21:23:55.353Z,76.72
2022-11-22T21:26:23.806Z,72.15
2022-11-22T21:28:50.758Z,76.65
2022-11-22T21:31:17.571Z,72.20
2022-11-22T21:33:45.659Z,75.90
2022-11-22T21:36:12.568Z,73.00
2022-11-22T21:38:39.246Z,81.57
2022-11-22T21:41:38.366Z,76.53
2022-11-22T21:43:57.241Z,75.32
2022-11-22T21:46:25.231Z,73.00
2022-11-22T21:48:52.163Z,68.70
2022-11-22T21:51:18.915Z,66.45
2022-11-22T21:53:45.633Z,64.30
2022-11-22T21:56:12.370Z,76.50
2022-11-22T21:58:39.037Z,70.03
2022-11-22T22:01:10.950Z,81.18
2022-11-22T22:03:40.712Z,77.75
2022-11-22T22:06:07.530Z,81.45
2022-11-22T22:08:34.454Z,80.63
2022-11-22T22:11:03.870Z,79.03
2022-11-22T22:13:31.128Z,83.03
2022-11-22T22:15:59.724Z,84.80
2022-11-22T22:18:31.563Z,72.88
2022-11-22T22:21:14.615Z,80.60
2022-11-22T22:23:42.163Z,70.35
2022-11-22T22:26:12.079Z,75.88
2022-11-22T22:28:40.180Z,66.55
2022-11-22T22:31:17.258Z,81.88
2022-11-22T22:33:45.675Z,83.38
2022-11-22T22:36:14.902Z,83.88
2022-11-22T22:38:43.495Z,93.53
2022-11-22T22:41:13.336Z,86.18
2022-11-22T22:43:44.030Z,91.13
2022-11-22T22:48:42.285Z,92.78
2022-11-22T22:51:19.029Z,109.03
2022-11-22T22:53:46.767Z,123.70
2022-11-22T22:56:16.070Z,116.45
2022-11-22T22:58:42.865Z,123.68
2022-11-22T23:01:21.060Z,124.93
2022-11-22T23:03:48.993Z,99.25
2022-11-22T23:06:16.494Z,112.45
2022-11-22T23:08:46.546Z,90.85
2022-11-22T23:11:13.535Z,102.05
2022-11-22T23:13:42.943Z,83.22
2022-11-22T23:16:13.742Z,87.63
2022-11-22T23:18:42.662Z,84.97
2022-11-22T23:21:12.487Z,82.10
2022-11-22T23:23:39.171Z,79.10
2022-11-22T23:26:09.339Z,82.90
2022-11-22T23:28:36.670Z,82.78
2022-11-22T23:31:05.329Z,71.68
2022-11-22T23:33:32.136Z,72.68
2022-11-22T23:36:07.525Z,70.97
2022-11-22T23:38:34.698Z,78.70
2022-11-22T23:41:01.933Z,72.07
2022-11-22T23:43:29.060Z,92.13
2022-11-22T23:45:55.762Z,96.45
2022-11-22T23:48:22.410Z,84.53
2022-11-22T23:50:49.055Z,83.13
2022-11-22T23:53:15.766Z,82.28
2022-11-22T23:55:42.805Z,78.28
2022-11-22T23:58:09.450Z,81.85
